Time;durP1;ratioP1;P1;durP2;ratioP2;P2;SDS_P1;SDS_P2;PMS_P1;PMS_P2;Temp;Humidity;BMP_temperature;BMP_pressure;BME280_temperature;BME280_humidity;BME280_pressure;Samples;Min_cycle;Max_cycle;Signal;HPM_P1;HPM_P2
2020/12/21 05:51:47;;;;;;;7.32;3.08;;;;;;;;;;5097700;27;20434;-81
2020/12/21 05:54:16;;;;;;;7.15;2.90;;;;;;;;;;5074818;28;20025;-81
2020/12/21 05:56:42;;;;;;;6.60;2.92;;;;;;;;;;5064095;28;20426;-81
2020/12/21 05:59:08;;;;;;;4.80;2.83;;;;;;;;;;5085910;28;20024;-81
2020/12/21 06:04:03;;;;;;;6.82;3.38;;;;;;;;;;5018539;28;20054;-80
2020/12/21 06:08:53;;;;;;;8.68;3.10;;;;;;;;;;5108395;27;20380;-79
2020/12/21 06:11:20;;;;;;;5.90;2.42;;;;;;;;;;5080324;28;20097;-82
2020/12/21 06:13:55;;;;;;;9.80;2.60;;;;;;;;;;5085283;28;20021;-82
2020/12/21 06:16:22;;;;;;;4.10;2.40;;;;;;;;;;5086040;28;20036;-81
2020/12/21 06:18:58;;;;;;;4.82;2.25;;;;;;;;;;5080023;28;20025;-81
2020/12/21 06:21:28;;;;;;;4.50;2.30;;;;;;;;;;5076047;28;20030;-82
2020/12/21 06:23:54;;;;;;;5.10;2.45;;;;;;;;;;5075701;28;20053;-83
2020/12/21 06:26:30;;;;;;;5.18;2.22;;;;;;;;;;5082026;28;20020;-82
2020/12/21 06:28:58;;;;;;;6.93;2.75;;;;;;;;;;5079286;28;20028;-83
2020/12/21 06:31:24;;;;;;;4.85;2.75;;;;;;;;;;5078848;28;20051;-80
2020/12/21 06:33:50;;;;;;;5.03;1.75;;;;;;;;;;5103918;28;20015;-83
2020/12/21 06:36:16;;;;;;;5.53;2.25;;;;;;;;;;5093936;28;20098;-82
2020/12/21 06:38:43;;;;;;;4.25;2.38;;;;;;;;;;5093791;28;20546;-81
2020/12/21 06:41:12;;;;;;;4.57;2.00;;;;;;;;;;5097851;28;20114;-80
2020/12/21 06:43:38;;;;;;;4.75;2.42;;;;;;;;;;5102179;28;20054;-84
2020/12/21 06:46:13;;;;;;;5.38;2.85;;;;;;;;;;5096466;28;20951;-83
2020/12/21 06:48:39;;;;;;;4.03;2.55;;;;;;;;;;5093859;28;20023;-83
2020/12/21 06:51:13;;;;;;;9.15;2.65;;;;;;;;;;5088840;28;20111;-81
2020/12/21 06:53:39;;;;;;;5.05;2.60;;;;;;;;;;5097954;28;20617;-82
2020/12/21 06:56:13;;;;;;;5.82;2.60;;;;;;;;;;5094389;28;20143;-82
2020/12/21 06:58:38;;;;;;;4.03;2.25;;;;;;;;;;5119466;28;20038;-81
2020/12/21 07:01:04;;;;;;;5.03;3.25;;;;;;;;;;5099461;28;20052;-83
2020/12/21 07:03:30;;;;;;;4.50;2.65;;;;;;;;;;5110936;28;20025;-83
2020/12/21 07:05:58;;;;;;;6.88;2.85;;;;;;;;;;5103739;28;20032;-83
2020/12/21 07:08:24;;;;;;;5.82;3.05;;;;;;;;;;5085446;28;20135;-82
2020/12/21 07:10:56;;;;;;;7.07;3.70;;;;;;;;;;5086768;28;20046;-81
2020/12/21 07:13:23;;;;;;;7.45;3.20;;;;;;;;;;5087172;28;20464;-82
2020/12/21 07:15:49;;;;;;;9.05;5.10;;;;;;;;;;5083421;28;20020;-83
2020/12/21 07:18:14;;;;;;;26.15;9.98;;;;;;;;;;5079601;28;20060;-83
2020/12/21 07:20:41;;;;;;;19.75;7.75;;;;;;;;;;5070116;28;20028;-82
2020/12/21 07:23:07;;;;;;;13.13;5.65;;;;;;;;;;5068638;28;20032;-83
2020/12/21 07:25:33;;;;;;;12.43;5.95;;;;;;;;;;5067738;28;20185;-83
2020/12/21 07:27:58;;;;;;;21.92;4.95;;;;;;;;;;5079004;28;20035;-82
2020/12/21 07:30:26;;;;;;;9.73;4.75;;;;;;;;;;5068821;28;20021;-83
2020/12/21 07:32:52;;;;;;;11.77;4.72;;;;;;;;;;5066628;28;20051;-82
2020/12/21 07:35:18;;;;;;;8.52;4.22;;;;;;;;;;5066918;28;20032;-81
2020/12/21 07:37:44;;;;;;;6.32;3.20;;;;;;;;;;5066999;28;20491;-83
2020/12/21 07:40:24;;;;;;;10.05;3.95;;;;;;;;;;5064650;28;20025;-82
2020/12/21 07:42:53;;;;;;;7.90;3.80;;;;;;;;;;5068708;28;20035;-82
2020/12/21 07:45:19;;;;;;;12.50;5.13;;;;;;;;;;5076928;28;20029;-81
2020/12/21 07:47:45;;;;;;;10.40;5.82;;;;;;;;;;5072374;28;20493;-80
2020/12/21 07:50:11;;;;;;;13.77;4.97;;;;;;;;;;5068007;28;20025;-82
2020/12/21 07:52:37;;;;;;;13.13;5.40;;;;;;;;;;5070444;28;20375;-82
2020/12/21 07:55:03;;;;;;;12.50;5.43;;;;;;;;;;5069546;28;20021;-82
2020/12/21 07:57:30;;;;;;;11.63;5.47;;;;;;;;;;5077427;28;20416;-82
2020/12/21 07:59:57;;;;;;;28.05;8.15;;;;;;;;;;5072824;28;20025;-83
2020/12/21 08:02:26;;;;;;;26.95;6.95;;;;;;;;;;5066044;28;20029;-83
2020/12/21 08:04:53;;;;;;;15.25;5.30;;;;;;;;;;5072784;28;20024;-83
2020/12/21 08:07:19;;;;;;;13.43;6.78;;;;;;;;;;5067003;28;20031;-82
2020/12/21 08:09:45;;;;;;;12.45;6.00;;;;;;;;;;5069341;28;20475;-82
2020/12/21 08:12:16;;;;;;;12.77;6.93;;;;;;;;;;5078408;28;20548;-80
2020/12/21 08:14:42;;;;;;;11.02;5.80;;;;;;;;;;5074915;28;20479;-82
2020/12/21 08:17:09;;;;;;;13.90;7.57;;;;;;;;;;5066299;28;20066;-81
2020/12/21 08:19:45;;;;;;;12.07;6.40;;;;;;;;;;5071318;28;20021;-83
2020/12/21 08:22:11;;;;;;;16.20;7.22;;;;;;;;;;5067701;28;20028;-82
2020/12/21 08:26:55;;;;;;;15.32;8.85;;;;;;;;;;5069144;28;20354;-82
2020/12/21 08:29:22;;;;;;;18.98;9.10;;;;;;;;;;5053996;28;20101;-82
2020/12/21 08:31:48;;;;;;;20.05;8.73;;;;;;;;;;5054729;28;20025;-80
2020/12/21 08:34:17;;;;;;;19.52;9.75;;;;;;;;;;5055784;28;20371;-80
2020/12/21 08:36:43;;;;;;;20.73;9.32;;;;;;;;;;5050068;28;20101;-83
2020/12/21 08:39:15;;;;;;;20.65;8.95;;;;;;;;;;5050164;28;20052;-82
2020/12/21 08:41:46;;;;;;;17.45;9.18;;;;;;;;;;5051065;28;20059;-82
2020/12/21 08:44:13;;;;;;;20.98;8.82;;;;;;;;;;5048365;28;20399;-83
2020/12/21 08:46:46;;;;;;;18.40;9.75;;;;;;;;;;5052062;28;20550;-81
2020/12/21 08:49:12;;;;;;;22.45;9.63;;;;;;;;;;5048047;28;20017;-83
2020/12/21 08:51:38;;;;;;;24.98;10.18;;;;;;;;;;5048816;28;20055;-82
2020/12/21 08:54:04;;;;;;;18.67;10.13;;;;;;;;;;5050445;28;20071;-83
2020/12/21 08:56:30;;;;;;;17.88;8.90;;;;;;;;;;5051310;28;20037;-81
2020/12/21 08:58:56;;;;;;;15.65;8.82;;;;;;;;;;5050555;28;20029;-82
2020/12/21 09:01:22;;;;;;;17.45;9.57;;;;;;;;;;5050482;28;20021;-81
2020/12/21 09:03:48;;;;;;;19.23;9.10;;;;;;;;;;5050907;28;20521;-83
2020/12/21 09:06:21;;;;;;;20.73;10.50;;;;;;;;;;5048095;28;20040;-82
2020/12/21 09:08:47;;;;;;;20.38;9.73;;;;;;;;;;5049124;28;20094;-82
2020/12/21 09:11:16;;;;;;;19.83;10.88;;;;;;;;;;5051164;28;20021;-83
2020/12/21 09:13:42;;;;;;;20.65;11.85;;;;;;;;;;5048805;28;20680;-83
2020/12/21 09:16:08;;;;;;;24.48;13.07;;;;;;;;;;5050165;28;20086;-81
2020/12/21 09:18:35;;;;;;;19.98;11.23;;;;;;;;;;5049757;28;20033;-83
2020/12/21 09:21:01;;;;;;;25.35;11.70;;;;;;;;;;5048864;28;20039;-82
2020/12/21 09:23:26;;;;;;;17.83;10.30;;;;;;;;;;5061783;28;20036;-83
2020/12/21 09:25:52;;;;;;;16.70;9.80;;;;;;;;;;5052431;28;20033;-82
2020/12/21 09:28:18;;;;;;;16.75;10.63;;;;;;;;;;5064383;28;20511;-82
2020/12/21 09:30:44;;;;;;;18.25;9.48;;;;;;;;;;5051120;28;20429;-82
2020/12/21 09:33:10;;;;;;;14.52;9.05;;;;;;;;;;5042574;28;20021;-83
2020/12/21 09:35:36;;;;;;;11.80;7.80;;;;;;;;;;5047594;28;20128;-82
2020/12/21 09:40:21;;;;;;;10.50;6.80;;;;;;;;;;5059349;28;20403;-82
2020/12/21 09:42:47;;;;;;;11.45;6.80;;;;;;;;;;5057278;28;20036;-83
2020/12/21 09:45:13;;;;;;;8.50;5.95;;;;;;;;;;5053851;28;20022;-83
2020/12/21 09:49:57;;;;;;;11.38;6.55;;;;;;;;;;5102177;27;20360;-82
2020/12/21 09:52:24;;;;;;;12.15;7.25;;;;;;;;;;5084637;28;20089;-82
2020/12/21 09:54:50;;;;;;;13.18;9.23;;;;;;;;;;5078894;28;20035;-82
2020/12/21 09:57:16;;;;;;;13.68;8.20;;;;;;;;;;5083511;28;20036;-83
2020/12/21 09:59:42;;;;;;;13.18;7.97;;;;;;;;;;5084353;28;20488;-82
2020/12/21 10:02:08;;;;;;;11.40;9.05;;;;;;;;;;5079737;28;20036;-82
2020/12/21 10:04:33;;;;;;;12.02;7.75;;;;;;;;;;5084556;28;20108;-82
2020/12/21 10:06:59;;;;;;;11.30;7.97;;;;;;;;;;5087203;28;20032;-83
2020/12/21 10:09:25;;;;;;;12.90;7.90;;;;;;;;;;5072670;28;20036;-81
2020/12/21 10:11:51;;;;;;;12.18;8.18;;;;;;;;;;5073404;28;20032;-82
2020/12/21 10:14:17;;;;;;;15.32;10.52;;;;;;;;;;5084215;28;20029;-81
2020/12/21 10:16:43;;;;;;;16.10;11.27;;;;;;;;;;5084267;28;20029;-82
2020/12/21 10:19:09;;;;;;;17.83;11.40;;;;;;;;;;5084005;28;20038;-81
2020/12/21 10:21:35;;;;;;;18.98;11.50;;;;;;;;;;5083756;28;20028;-81
2020/12/21 10:24:01;;;;;;;15.35;10.65;;;;;;;;;;5078761;28;20050;-83
2020/12/21 10:26:27;;;;;;;17.13;10.93;;;;;;;;;;5084560;28;20584;-82
2020/12/21 10:28:53;;;;;;;13.75;9.10;;;;;;;;;;5079816;28;20369;-82
2020/12/21 10:33:37;;;;;;;15.43;8.63;;;;;;;;;;5111453;27;20423;-82
2020/12/21 10:36:03;;;;;;;11.15;6.63;;;;;;;;;;5092047;28;20036;-82
2020/12/21 10:38:30;;;;;;;12.98;7.63;;;;;;;;;;5089978;28;20042;-82
2020/12/21 10:40:56;;;;;;;10.75;6.70;;;;;;;;;;5090923;28;20020;-82
2020/12/21 10:43:22;;;;;;;14.27;9.27;;;;;;;;;;5094284;28;20030;-81
2020/12/21 10:45:48;;;;;;;13.25;8.10;;;;;;;;;;5099474;28;20055;-81
2020/12/21 10:48:14;;;;;;;12.85;7.78;;;;;;;;;;5100952;28;20019;-81
2020/12/21 10:50:40;;;;;;;23.00;13.25;;;;;;;;;;5107065;28;20024;-81
2020/12/21 10:53:06;;;;;;;23.48;13.43;;;;;;;;;;5094455;28;20059;-81
2020/12/21 10:55:32;;;;;;;21.10;12.70;;;;;;;;;;5093081;28;20027;-82
2020/12/21 10:57:58;;;;;;;18.58;12.48;;;;;;;;;;5095274;28;20024;-81
2020/12/21 11:00:24;;;;;;;18.45;11.00;;;;;;;;;;5094990;28;20020;-82
2020/12/21 11:02:50;;;;;;;14.13;10.05;;;;;;;;;;5102022;28;20073;-80
2020/12/21 11:05:16;;;;;;;12.55;8.10;;;;;;;;;;5093797;28;20431;-82
2020/12/21 11:07:42;;;;;;;15.23;8.32;;;;;;;;;;5099359;28;20115;-81
2020/12/21 11:10:09;;;;;;;16.65;9.90;;;;;;;;;;5095087;28;20099;-81
2020/12/21 11:12:35;;;;;;;17.70;11.35;;;;;;;;;;5100829;28;20475;-81
2020/12/21 11:15:02;;;;;;;15.10;9.38;;;;;;;;;;5099849;28;20085;-80
2020/12/21 11:17:28;;;;;;;15.77;10.15;;;;;;;;;;5095881;28;20031;-81
2020/12/21 11:19:54;;;;;;;17.02;9.65;;;;;;;;;;5105747;28;20415;-81
2020/12/21 11:22:19;;;;;;;15.30;8.05;;;;;;;;;;5103636;28;20131;-80
2020/12/21 11:24:45;;;;;;;15.52;7.38;;;;;;;;;;5092365;28;20032;-80
2020/12/21 11:27:11;;;;;;;15.00;7.75;;;;;;;;;;5100191;28;20343;-80
2020/12/21 11:29:37;;;;;;;13.07;7.35;;;;;;;;;;5102811;28;20548;-81
2020/12/21 11:32:03;;;;;;;11.55;5.70;;;;;;;;;;5100990;28;20107;-80
2020/12/21 11:34:29;;;;;;;8.30;5.15;;;;;;;;;;5095679;28;20020;-80
2020/12/21 11:36:55;;;;;;;8.07;4.65;;;;;;;;;;5102923;28;20024;-81
2020/12/21 11:39:21;;;;;;;9.88;6.07;;;;;;;;;;5100104;28;20102;-81
2020/12/21 11:41:47;;;;;;;9.05;5.47;;;;;;;;;;5099919;28;20058;-80
2020/12/21 11:44:13;;;;;;;9.88;5.65;;;;;;;;;;5087321;28;20506;-80
2020/12/21 11:46:40;;;;;;;10.15;5.80;;;;;;;;;;5079887;28;20032;-81
2020/12/21 11:49:06;;;;;;;10.73;4.90;;;;;;;;;;5083421;28;20020;-80
2020/12/21 11:51:32;;;;;;;8.15;4.90;;;;;;;;;;5088208;28;20654;-80
2020/12/21 12:06:41;;;;;;;4.70;2.80;;;;;;;;;;5093176;27;21094;-82
2020/12/21 12:09:07;;;;;;;6.70;3.58;;;;;;;;;;5091909;28;20024;-82
2020/12/21 12:11:33;;;;;;;5.65;3.10;;;;;;;;;;5082902;28;20029;-82
2020/12/21 12:13:59;;;;;;;6.38;2.78;;;;;;;;;;5091697;28;20021;-81
2020/12/21 12:16:25;;;;;;;6.43;2.75;;;;;;;;;;5084089;28;20029;-81
2020/12/21 12:18:51;;;;;;;5.70;2.35;;;;;;;;;;5084308;28;20016;-82
2020/12/21 12:21:21;;;;;;;4.03;2.03;;;;;;;;;;5074708;28;20070;-81
2020/12/21 12:23:47;;;;;;;5.50;2.28;;;;;;;;;;5089642;28;20024;-81
2020/12/21 12:26:19;;;;;;;6.75;2.25;;;;;;;;;;5072073;28;20028;-81
2020/12/21 12:28:45;;;;;;;5.18;2.05;;;;;;;;;;5078099;28;20029;-82
2020/12/21 12:31:21;;;;;;;6.32;2.25;;;;;;;;;;5085815;28;20024;-81
2020/12/21 12:33:48;;;;;;;6.85;2.45;;;;;;;;;;5082511;28;20040;-81
2020/12/21 12:36:21;;;;;;;5.13;2.15;;;;;;;;;;5079907;28;20040;-82
2020/12/21 12:38:47;;;;;;;5.93;2.03;;;;;;;;;;5078277;28;20024;-82
2020/12/21 12:41:13;;;;;;;4.45;2.10;;;;;;;;;;5068729;28;20044;-81
2020/12/21 12:43:40;;;;;;;7.65;2.78;;;;;;;;;;5075796;28;20029;-81
2020/12/21 12:46:06;;;;;;;7.43;2.78;;;;;;;;;;5071338;28;20552;-81
2020/12/21 12:48:36;;;;;;;5.70;2.70;;;;;;;;;;5073223;28;20427;-81
2020/12/21 12:51:02;;;;;;;8.43;4.25;;;;;;;;;;5070471;28;20079;-81
2020/12/21 12:53:28;;;;;;;5.03;3.50;;;;;;;;;;5079243;28;20078;-81
2020/12/21 12:55:54;;;;;;;16.33;9.27;;;;;;;;;;5074890;28;20724;-81
2020/12/21 12:58:20;;;;;;;14.27;9.30;;;;;;;;;;5074202;28;20026;-81
2020/12/21 13:00:46;;;;;;;5.72;3.83;;;;;;;;;;5079738;28;20056;-81
2020/12/21 13:03:12;;;;;;;8.27;4.15;;;;;;;;;;5073952;28;20032;-81
2020/12/21 13:05:38;;;;;;;6.05;2.90;;;;;;;;;;5074803;28;20061;-80
2020/12/21 13:08:05;;;;;;;7.07;4.95;;;;;;;;;;5058755;28;20028;-80
2020/12/21 13:10:31;;;;;;;6.85;4.65;;;;;;;;;;5061078;28;20024;-81
2020/12/21 13:12:57;;;;;;;7.88;3.95;;;;;;;;;;5056525;28;20434;-81
2020/12/21 13:15:23;;;;;;;8.25;4.40;;;;;;;;;;5064906;28;20728;-81
2020/12/21 13:17:49;;;;;;;6.97;4.35;;;;;;;;;;5059805;28;20035;-81
2020/12/21 13:20:15;;;;;;;10.43;6.10;;;;;;;;;;5061090;28;20021;-81
2020/12/21 13:22:41;;;;;;;9.85;5.18;;;;;;;;;;5063918;28;20363;-81
2020/12/21 13:25:07;;;;;;;8.45;4.40;;;;;;;;;;5067158;28;20111;-81
2020/12/21 13:27:33;;;;;;;6.78;3.17;;;;;;;;;;5063801;28;20065;-81
2020/12/21 13:29:59;;;;;;;8.38;3.25;;;;;;;;;;5062719;28;20025;-80
2020/12/21 13:34:44;;;;;;;11.30;4.13;;;;;;;;;;5099231;27;20384;-80
2020/12/21 13:37:10;;;;;;;9.05;4.40;;;;;;;;;;5099928;28;20100;-80
2020/12/21 13:39:36;;;;;;;7.03;4.07;;;;;;;;;;5105055;28;20050;-80
2020/12/21 13:44:21;;;;;;;8.00;4.90;;;;;;;;;;5090124;28;20436;-81
2020/12/21 13:46:46;;;;;;;10.38;4.78;;;;;;;;;;5083778;28;20041;-80
2020/12/21 13:49:13;;;;;;;18.52;9.40;;;;;;;;;;5081060;28;20134;-81
2020/12/21 13:51:39;;;;;;;11.35;7.43;;;;;;;;;;5075799;28;20075;-80
2020/12/21 13:54:05;;;;;;;12.07;6.18;;;;;;;;;;5073651;28;20025;-81
2020/12/21 13:56:31;;;;;;;8.13;5.47;;;;;;;;;;5076501;28;20024;-80
2020/12/21 13:58:57;;;;;;;12.25;7.25;;;;;;;;;;5075765;28;20017;-81
2020/12/21 14:01:23;;;;;;;7.10;4.97;;;;;;;;;;5080326;28;20068;-81
2020/12/21 14:03:49;;;;;;;11.48;5.65;;;;;;;;;;5078604;28;20032;-82
2020/12/21 14:06:18;;;;;;;9.80;5.90;;;;;;;;;;5076417;28;20024;-82
2020/12/21 14:08:43;;;;;;;8.80;5.78;;;;;;;;;;5071977;28;20032;-82
2020/12/21 14:11:09;;;;;;;9.90;5.10;;;;;;;;;;5072274;28;20663;-82
2020/12/21 14:13:36;;;;;;;15.20;6.78;;;;;;;;;;5081703;28;20566;-79
2020/12/21 14:16:31;;;;;;;14.88;8.52;;;;;;;;;;5072424;28;20051;-82
2020/12/21 14:18:57;;;;;;;14.32;7.80;;;;;;;;;;5067873;28;20098;-80
2020/12/21 14:21:23;;;;;;;9.23;6.07;;;;;;;;;;5089041;28;20032;-81
2020/12/21 14:23:49;;;;;;;12.82;6.50;;;;;;;;;;5088215;28;20037;-81
2020/12/21 14:26:15;;;;;;;9.20;5.57;;;;;;;;;;5079209;28;20047;-80
2020/12/21 14:28:41;;;;;;;10.45;5.75;;;;;;;;;;5080996;28;20028;-81
2020/12/21 14:31:07;;;;;;;13.75;6.22;;;;;;;;;;5071632;28;20020;-81
2020/12/21 14:33:34;;;;;;;10.38;5.85;;;;;;;;;;5081257;28;20032;-80
2020/12/21 14:36:00;;;;;;;10.25;6.57;;;;;;;;;;5077028;28;20039;-81
2020/12/21 14:38:26;;;;;;;9.23;5.63;;;;;;;;;;5084591;28;20460;-81
2020/12/21 14:40:52;;;;;;;16.75;5.68;;;;;;;;;;5085967;28;20507;-80
2020/12/21 14:43:18;;;;;;;8.50;5.15;;;;;;;;;;5079845;28;20029;-81
2020/12/21 14:45:44;;;;;;;8.15;5.00;;;;;;;;;;5077285;28;20024;-81
2020/12/21 14:48:10;;;;;;;9.50;5.82;;;;;;;;;;5076934;28;20162;-80
2020/12/21 14:50:36;;;;;;;9.45;5.45;;;;;;;;;;5087679;28;20024;-81
2020/12/21 14:53:02;;;;;;;12.40;5.45;;;;;;;;;;5083332;28;20028;-81
2020/12/21 14:57:46;;;;;;;9.10;4.60;;;;;;;;;;5123904;27;20748;-80
2020/12/21 15:00:12;;;;;;;7.78;4.40;;;;;;;;;;5117106;28;20391;-79
2020/12/21 15:02:38;;;;;;;7.60;4.22;;;;;;;;;;5113338;28;20052;-79
2020/12/21 15:05:05;;;;;;;6.53;3.63;;;;;;;;;;5100490;28;20504;-81
2020/12/21 15:07:37;;;;;;;9.85;3.83;;;;;;;;;;5098713;28;20520;-82
2020/12/21 15:10:05;;;;;;;8.02;4.03;;;;;;;;;;5102997;28;20115;-81
2020/12/21 15:12:34;;;;;;;8.70;3.60;;;;;;;;;;5097778;28;20476;-81
2020/12/21 15:15:01;;;;;;;7.63;3.85;;;;;;;;;;5096246;28;20387;-82
2020/12/21 15:17:27;;;;;;;5.68;3.60;;;;;;;;;;5097093;28;20385;-82
2020/12/21 15:19:53;;;;;;;6.85;4.07;;;;;;;;;;5096547;28;20119;-82
2020/12/21 15:22:19;;;;;;;6.57;3.90;;;;;;;;;;5097858;28;20024;-82
2020/12/21 15:24:45;;;;;;;6.65;4.43;;;;;;;;;;5105417;28;20472;-82
2020/12/21 15:27:12;;;;;;;8.95;4.63;;;;;;;;;;5095463;28;20107;-82
2020/12/21 15:29:38;;;;;;;9.20;4.28;;;;;;;;;;5097525;28;20057;-82
2020/12/21 15:32:04;;;;;;;7.47;3.67;;;;;;;;;;5098005;28;20832;-82
2020/12/21 15:34:30;;;;;;;10.60;4.22;;;;;;;;;;5096626;28;20396;-82
2020/12/21 15:36:56;;;;;;;10.65;5.20;;;;;;;;;;5095155;28;20016;-82
2020/12/21 15:39:22;;;;;;;7.75;4.20;;;;;;;;;;5095317;28;20479;-82
2020/12/21 15:41:48;;;;;;;9.23;6.13;;;;;;;;;;5098155;28;20024;-82
2020/12/21 15:44:14;;;;;;;9.10;4.68;;;;;;;;;;5098490;28;20412;-82
2020/12/21 15:46:47;;;;;;;8.85;5.10;;;;;;;;;;5095983;28;20027;-82
2020/12/21 15:49:13;;;;;;;9.55;5.10;;;;;;;;;;5104381;28;20032;-82
2020/12/21 15:51:39;;;;;;;10.25;6.13;;;;;;;;;;5104017;28;20479;-82
2020/12/21 15:54:08;;;;;;;10.23;5.25;;;;;;;;;;5094768;28;20031;-82
2020/12/21 15:56:34;;;;;;;10.98;5.90;;;;;;;;;;5095518;28;21442;-82
2020/12/21 15:59:00;;;;;;;7.68;4.78;;;;;;;;;;5092726;28;20024;-83
2020/12/21 16:01:26;;;;;;;9.27;5.72;;;;;;;;;;5092663;28;20065;-83
2020/12/21 16:16:34;;;;;;;9.40;5.80;;;;;;;;;;4498019;27;17878875;-83
2020/12/21 16:19:00;;;;;;;11.48;6.85;;;;;;;;;;5147570;27;20043;-83
2020/12/21 16:21:26;;;;;;;12.18;6.40;;;;;;;;;;5142114;27;20053;-83
2020/12/21 16:24:15;;;;;;;12.23;6.97;;;;;;;;;;5141817;27;20095;-83
2020/12/21 16:27:10;;;;;;;10.68;6.68;;;;;;;;;;5138593;27;20043;-83
2020/12/21 16:29:36;;;;;;;13.20;8.35;;;;;;;;;;5136288;27;20047;-82
2020/12/21 16:32:03;;;;;;;15.25;10.52;;;;;;;;;;5135236;27;20019;-81
2020/12/21 16:34:29;;;;;;;13.73;9.48;;;;;;;;;;5137653;27;20031;-80
2020/12/21 16:36:55;;;;;;;39.38;21.13;;;;;;;;;;5137791;27;20031;-83
2020/12/21 16:39:21;;;;;;;39.42;22.42;;;;;;;;;;5137464;27;20027;-83
2020/12/21 16:41:57;;;;;;;34.10;15.35;;;;;;;;;;5132893;27;20062;-83
2020/12/21 16:44:23;;;;;;;17.38;9.57;;;;;;;;;;5132207;27;20031;-83
2020/12/21 16:46:49;;;;;;;14.70;9.25;;;;;;;;;;5135905;27;20031;-83
2020/12/21 16:49:15;;;;;;;12.88;7.18;;;;;;;;;;5133628;27;20535;-83
2020/12/21 16:51:45;;;;;;;10.38;5.13;;;;;;;;;;5131975;27;20576;-83
2020/12/21 16:54:11;;;;;;;9.65;5.75;;;;;;;;;;5134056;27;20031;-83
2020/12/21 16:56:37;;;;;;;13.85;8.32;;;;;;;;;;5134392;27;20082;-84
2020/12/21 16:59:04;;;;;;;9.95;6.57;;;;;;;;;;5130783;27;20057;-83
2020/12/21 17:01:30;;;;;;;8.20;5.68;;;;;;;;;;5133413;27;20041;-83
2020/12/21 17:03:56;;;;;;;10.10;4.57;;;;;;;;;;5136614;27;20050;-83
2020/12/21 17:08:58;;;;;;;8.93;4.65;;;;;;;;;;5109883;27;21049;-84
2020/12/21 17:11:24;;;;;;;6.32;4.13;;;;;;;;;;5090126;28;20031;-83
2020/12/21 17:13:51;;;;;;;7.38;4.22;;;;;;;;;;5090707;28;20070;-83
2020/12/21 17:16:17;;;;;;;7.90;4.75;;;;;;;;;;5092962;28;20035;-83
2020/12/21 17:18:43;;;;;;;9.52;4.35;;;;;;;;;;5091880;28;20039;-83
2020/12/21 17:21:09;;;;;;;7.47;4.10;;;;;;;;;;5100931;28;20136;-83
2020/12/21 17:23:35;;;;;;;7.68;5.40;;;;;;;;;;5094573;28;20633;-83
2020/12/21 17:26:05;;;;;;;13.40;9.48;;;;;;;;;;5097191;28;20066;-83
2020/12/21 17:28:31;;;;;;;15.80;10.48;;;;;;;;;;5095413;28;20089;-83
2020/12/21 17:30:57;;;;;;;11.15;6.03;;;;;;;;;;5091100;28;20028;-83
2020/12/21 17:33:22;;;;;;;8.77;4.90;;;;;;;;;;5090958;28;20076;-83
2020/12/21 17:35:48;;;;;;;9.90;5.43;;;;;;;;;;5092975;28;20019;-83
2020/12/21 17:38:14;;;;;;;10.40;6.85;;;;;;;;;;5094611;28;20046;-83
2020/12/21 17:40:40;;;;;;;19.67;11.30;;;;;;;;;;5095282;28;20028;-83
2020/12/21 17:43:06;;;;;;;17.38;9.40;;;;;;;;;;5094717;28;20070;-83
2020/12/21 17:45:32;;;;;;;12.57;9.07;;;;;;;;;;5094319;28;20112;-82
2020/12/21 18:00:41;;;;;;;9.25;6.65;;;;;;;;;;5105347;27;20437;-83
2020/12/21 18:03:07;;;;;;;15.75;7.13;;;;;;;;;;5093132;28;20111;-83
2020/12/21 18:05:33;;;;;;;12.27;7.85;;;;;;;;;;5106557;28;20056;-83
2020/12/21 18:07:59;;;;;;;10.55;6.68;;;;;;;;;;5099397;28;20057;-83
2020/12/21 18:10:25;;;;;;;12.52;6.70;;;;;;;;;;5095848;28;20028;-83
2020/12/21 18:12:51;;;;;;;11.13;6.63;;;;;;;;;;5099469;28;20374;-83
2020/12/21 18:15:17;;;;;;;10.77;7.05;;;;;;;;;;5091797;28;20024;-83
2020/12/21 18:17:43;;;;;;;12.15;7.28;;;;;;;;;;5099751;28;20107;-83
2020/12/21 18:20:11;;;;;;;14.77;8.23;;;;;;;;;;5090792;28;20032;-83
2020/12/21 18:22:36;;;;;;;11.93;7.20;;;;;;;;;;5093492;28;20029;-84
2020/12/21 18:25:03;;;;;;;11.02;7.32;;;;;;;;;;5093650;28;20028;-83
2020/12/21 18:27:29;;;;;;;12.63;6.80;;;;;;;;;;5090141;28;20024;-82
2020/12/21 18:29:56;;;;;;;10.02;6.07;;;;;;;;;;5099146;28;20024;-83
2020/12/21 18:32:23;;;;;;;9.80;6.13;;;;;;;;;;5098813;22;20053;-85
2020/12/21 18:34:49;;;;;;;11.43;6.80;;;;;;;;;;5051919;28;20021;-84
2020/12/21 18:37:15;;;;;;;13.40;7.78;;;;;;;;;;5062057;28;20031;-84
2020/12/21 18:39:42;;;;;;;11.80;7.35;;;;;;;;;;5064926;28;20059;-85
2020/12/21 18:42:15;;;;;;;17.30;9.57;;;;;;;;;;5071705;28;20028;-86
2020/12/21 18:44:41;;;;;;;18.73;11.50;;;;;;;;;;5071959;28;20381;-85
2020/12/21 18:47:08;;;;;;;16.60;10.88;;;;;;;;;;5078203;28;20394;-85
2020/12/21 18:49:36;;;;;;;16.38;10.05;;;;;;;;;;5074304;28;20429;-86
2020/12/21 18:52:02;;;;;;;14.52;8.32;;;;;;;;;;5060180;28;20024;-85
2020/12/21 18:54:32;;;;;;;10.90;7.43;;;;;;;;;;5078555;28;20029;-85
2020/12/21 18:56:58;;;;;;;11.30;6.53;;;;;;;;;;5079266;28;20024;-85
2020/12/21 18:59:24;;;;;;;17.50;8.98;;;;;;;;;;5075633;28;20032;-85
2020/12/21 19:01:50;;;;;;;14.30;8.15;;;;;;;;;;5060214;28;20370;-85
2020/12/21 19:04:16;;;;;;;15.00;7.63;;;;;;;;;;5062946;28;20032;-85
2020/12/21 19:23:06;;;;;;;16.83;10.90;;;;;;;;;;5051800;28;20108;-85
2020/12/21 19:36:42;;;;;;;13.45;9.13;;;;;;;;;;5055718;28;20044;-84
2020/12/21 19:41:27;;;;;;;12.57;9.02;;;;;;;;;;5071953;27;20392;-82
2020/12/21 19:43:55;;;;;;;13.25;8.55;;;;;;;;;;5075746;28;20028;-82
2020/12/21 19:46:27;;;;;;;13.43;8.27;;;;;;;;;;5075873;28;20028;-82
2020/12/21 19:48:53;;;;;;;10.30;7.47;;;;;;;;;;5077648;28;20111;-82
2020/12/21 19:51:19;;;;;;;13.05;5.47;;;;;;;;;;5079779;28;20555;-82
2020/12/21 19:53:45;;;;;;;7.32;4.78;;;;;;;;;;5080227;28;20035;-81
2020/12/21 19:56:11;;;;;;;7.90;5.05;;;;;;;;;;5078502;28;20032;-82
2020/12/21 19:58:37;;;;;;;5.53;3.00;;;;;;;;;;5077802;28;20459;-82
2020/12/21 20:01:03;;;;;;;5.93;3.30;;;;;;;;;;5074525;28;20124;-83
2020/12/21 20:03:29;;;;;;;7.15;3.70;;;;;;;;;;5078547;28;20115;-82
2020/12/21 20:05:55;;;;;;;7.30;4.70;;;;;;;;;;5071235;28;20104;-83
2020/12/21 20:08:21;;;;;;;10.48;6.60;;;;;;;;;;5079638;28;20037;-83
2020/12/21 20:10:47;;;;;;;10.88;6.72;;;;;;;;;;5082129;28;20051;-83
2020/12/21 20:13:14;;;;;;;8.48;5.60;;;;;;;;;;5074735;28;20047;-84
2020/12/21 20:15:40;;;;;;;7.53;4.53;;;;;;;;;;5078273;28;20036;-83
2020/12/21 20:18:06;;;;;;;5.40;3.50;;;;;;;;;;5073446;28;20035;-83
2020/12/21 20:20:32;;;;;;;7.10;4.00;;;;;;;;;;5092101;28;20024;-84
2020/12/21 20:22:58;;;;;;;4.57;2.58;;;;;;;;;;5090208;28;20021;-83
2020/12/21 20:25:24;;;;;;;3.88;2.25;;;;;;;;;;5080644;28;20128;-84
2020/12/21 20:27:50;;;;;;;4.43;2.45;;;;;;;;;;5076322;28;20036;-83
2020/12/21 20:30:16;;;;;;;3.28;2.00;;;;;;;;;;5085947;28;20028;-84
2020/12/21 20:32:42;;;;;;;4.72;2.72;;;;;;;;;;5074544;28;20036;-83
2020/12/21 20:35:08;;;;;;;6.97;2.40;;;;;;;;;;5070669;28;20124;-83
2020/12/21 20:37:34;;;;;;;3.33;2.00;;;;;;;;;;5073700;28;20035;-84
2020/12/21 20:40:00;;;;;;;4.75;2.20;;;;;;;;;;5071870;28;20033;-83
2020/12/21 20:42:26;;;;;;;3.45;1.98;;;;;;;;;;5072890;28;20021;-82
2020/12/21 20:44:53;;;;;;;5.18;1.83;;;;;;;;;;5071116;28;20025;-81
2020/12/21 20:47:19;;;;;;;3.42;1.77;;;;;;;;;;5079687;28;20025;-83
2020/12/21 20:49:45;;;;;;;4.45;2.38;;;;;;;;;;5073438;28;20024;-82
2020/12/21 20:52:11;;;;;;;4.00;2.03;;;;;;;;;;5069100;28;20393;-83
2020/12/21 20:54:37;;;;;;;2.50;1.45;;;;;;;;;;5060861;28;20092;-83
2020/12/21 20:57:03;;;;;;;3.65;1.85;;;;;;;;;;5063407;28;20079;-83
2020/12/21 20:59:29;;;;;;;3.15;1.58;;;;;;;;;;5059203;28;20112;-82
2020/12/21 21:01:55;;;;;;;2.88;1.70;;;;;;;;;;5058623;28;20064;-82
2020/12/21 21:04:22;;;;;;;3.22;1.27;;;;;;;;;;5062544;28;20469;-82
2020/12/21 21:06:48;;;;;;;3.22;1.60;;;;;;;;;;5065545;28;20070;-83
2020/12/21 21:09:14;;;;;;;4.13;2.55;;;;;;;;;;5064713;28;20075;-82
2020/12/21 21:11:43;;;;;;;4.80;3.00;;;;;;;;;;5059412;28;20021;-81
2020/12/21 21:14:09;;;;;;;3.25;1.90;;;;;;;;;;5053804;28;20073;-82
2020/12/21 21:16:49;;;;;;;3.63;1.75;;;;;;;;;;5052346;28;20036;-82
2020/12/21 21:19:16;;;;;;;2.80;1.75;;;;;;;;;;5053757;28;20067;-83
2020/12/21 21:21:46;;;;;;;3.05;1.50;;;;;;;;;;5063005;28;20058;-81
2020/12/21 21:24:12;;;;;;;2.80;1.30;;;;;;;;;;5066011;28;20481;-82
2020/12/21 21:29:00;;;;;;;8.18;4.10;;;;;;;;;;5128324;27;20422;-82
2020/12/21 21:31:26;;;;;;;6.25;3.60;;;;;;;;;;5108897;28;20036;-82
2020/12/21 21:33:52;;;;;;;4.90;2.67;;;;;;;;;;5105261;28;20028;-82
2020/12/21 21:36:18;;;;;;;3.95;2.22;;;;;;;;;;5107285;28;20036;-83
2020/12/21 21:38:44;;;;;;;3.70;1.70;;;;;;;;;;5104201;28;20048;-83
2020/12/21 21:41:10;;;;;;;3.17;1.58;;;;;;;;;;5105656;28;20513;-81
2020/12/21 21:43:37;;;;;;;3.10;1.67;;;;;;;;;;5100040;28;20016;-83
2020/12/21 21:46:03;;;;;;;2.60;1.38;;;;;;;;;;5102939;28;20062;-82
2020/12/21 21:48:29;;;;;;;2.97;1.23;;;;;;;;;;5102800;28;20028;-82
2020/12/21 21:53:14;;;;;;;3.42;1.52;;;;;;;;;;5067510;28;20707;-82
2020/12/21 21:55:39;;;;;;;2.80;1.63;;;;;;;;;;5057695;28;20028;-82
2020/12/21 21:58:05;;;;;;;3.72;1.90;;;;;;;;;;5046911;28;20031;-82
2020/12/21 22:00:31;;;;;;;4.20;2.63;;;;;;;;;;5044795;28;20036;-82